sensor_id;sensor_type;location;lat;lon;timestamp;P1;durP1;ratioP1;P2;durP2;ratioP2
19032;SDS011;9649;51.042;13.804;2022-10-16T00:01:26;14.25;;;11.10;;
19032;SDS011;9649;51.042;13.804;2022-10-16T00:06:30;14.50;;;10.95;;
19032;SDS011;9649;51.042;13.804;2022-10-16T00:11:34;15.75;;;11.50;;
19032;SDS011;9649;51.042;13.804;2022-10-16T00:16:40;15.63;;;12.25;;
19032;SDS011;9649;51.042;13.804;2022-10-16T00:21:43;16.33;;;12.02;;
19032;SDS011;9649;51.042;13.804;2022-10-16T00:26:46;19.80;;;12.77;;
19032;SDS011;9649;51.042;13.804;2022-10-16T00:31:53;17.08;;;11.85;;
19032;SDS011;9649;51.042;13.804;2022-10-16T00:36:55;15.23;;;11.70;;
19032;SDS011;9649;51.042;13.804;2022-10-16T00:41:58;14.57;;;11.52;;
19032;SDS011;9649;51.042;13.804;2022-10-16T00:47:02;13.25;;;10.63;;
19032;SDS011;9649;51.042;13.804;2022-10-16T00:52:05;14.13;;;10.90;;
19032;SDS011;9649;51.042;13.804;2022-10-16T00:57:08;14.57;;;11.15;;
19032;SDS011;9649;51.042;13.804;2022-10-16T01:02:13;12.07;;;10.75;;
19032;SDS011;9649;51.042;13.804;2022-10-16T01:07:20;19.55;;;11.45;;
19032;SDS011;9649;51.042;13.804;2022-10-16T01:12:33;15.13;;;11.38;;
19032;SDS011;9649;51.042;13.804;2022-10-16T01:17:51;17.25;;;10.68;;
19032;SDS011;9649;51.042;13.804;2022-10-16T01:23:01;11.90;;;10.20;;
19032;SDS011;9649;51.042;13.804;2022-10-16T01:28:11;13.73;;;10.60;;
19032;SDS011;9649;51.042;13.804;2022-10-16T01:33:17;14.75;;;10.48;;
19032;SDS011;9649;51.042;13.804;2022-10-16T01:38:25;15.30;;;11.70;;
19032;SDS011;9649;51.042;13.804;2022-10-16T01:43:33;12.60;;;10.80;;
19032;SDS011;9649;51.042;13.804;2022-10-16T01:48:38;14.18;;;12.02;;
19032;SDS011;9649;51.042;13.804;2022-10-16T01:53:43;14.50;;;12.25;;
19032;SDS011;9649;51.042;13.804;2022-10-16T01:58:53;16.25;;;13.23;;
19032;SDS011;9649;51.042;13.804;2022-10-16T02:03:59;16.50;;;12.60;;
19032;SDS011;9649;51.042;13.804;2022-10-16T02:09:08;16.95;;;13.18;;
19032;SDS011;9649;51.042;13.804;2022-10-16T02:14:12;18.67;;;13.15;;
19032;SDS011;9649;51.042;13.804;2022-10-16T02:19:15;16.23;;;13.63;;
19032;SDS011;9649;51.042;13.804;2022-10-16T02:24:22;14.93;;;13.05;;
19032;SDS011;9649;51.042;13.804;2022-10-16T02:29:34;19.27;;;13.75;;
19032;SDS011;9649;51.042;13.804;2022-10-16T02:34:40;15.77;;;12.73;;
19032;SDS011;9649;51.042;13.804;2022-10-16T02:39:43;15.15;;;12.75;;
19032;SDS011;9649;51.042;13.804;2022-10-16T02:44:47;13.95;;;11.70;;
19032;SDS011;9649;51.042;13.804;2022-10-16T02:49:50;14.60;;;12.02;;
19032;SDS011;9649;51.042;13.804;2022-10-16T02:54:53;13.27;;;10.90;;
19032;SDS011;9649;51.042;13.804;2022-10-16T02:59:57;13.07;;;10.65;;
19032;SDS011;9649;51.042;13.804;2022-10-16T03:05:00;14.45;;;10.38;;
19032;SDS011;9649;51.042;13.804;2022-10-16T03:10:03;13.25;;;10.55;;
19032;SDS011;9649;51.042;13.804;2022-10-16T03:15:08;13.43;;;10.38;;
19032;SDS011;9649;51.042;13.804;2022-10-16T03:20:11;14.10;;;10.07;;
19032;SDS011;9649;51.042;13.804;2022-10-16T03:25:14;13.60;;;11.13;;
19032;SDS011;9649;51.042;13.804;2022-10-16T03:30:18;13.00;;;10.70;;
19032;SDS011;9649;51.042;13.804;2022-10-16T03:35:22;13.77;;;11.15;;
19032;SDS011;9649;51.042;13.804;2022-10-16T03:40:25;14.07;;;11.02;;
19032;SDS011;9649;51.042;13.804;2022-10-16T03:45:30;14.63;;;11.48;;
19032;SDS011;9649;51.042;13.804;2022-10-16T03:50:33;15.18;;;11.45;;
19032;SDS011;9649;51.042;13.804;2022-10-16T03:55:36;17.90;;;11.55;;
19032;SDS011;9649;51.042;13.804;2022-10-16T04:00:41;15.48;;;11.38;;
19032;SDS011;9649;51.042;13.804;2022-10-16T04:05:44;15.38;;;11.60;;
19032;SDS011;9649;51.042;13.804;2022-10-16T04:10:47;13.30;;;11.25;;
19032;SDS011;9649;51.042;13.804;2022-10-16T04:15:51;13.07;;;11.48;;
19032;SDS011;9649;51.042;13.804;2022-10-16T04:20:54;15.63;;;11.82;;
19032;SDS011;9649;51.042;13.804;2022-10-16T04:25:56;15.18;;;11.90;;
19032;SDS011;9649;51.042;13.804;2022-10-16T04:31:01;14.85;;;11.93;;
19032;SDS011;9649;51.042;13.804;2022-10-16T04:36:06;14.90;;;11.90;;
19032;SDS011;9649;51.042;13.804;2022-10-16T04:41:08;20.20;;;13.60;;
19032;SDS011;9649;51.042;13.804;2022-10-16T04:46:13;14.23;;;12.07;;
19032;SDS011;9649;51.042;13.804;2022-10-16T04:51:15;19.83;;;11.23;;
19032;SDS011;9649;51.042;13.804;2022-10-16T04:56:19;13.88;;;11.73;;
19032;SDS011;9649;51.042;13.804;2022-10-16T05:01:24;13.32;;;11.10;;
19032;SDS011;9649;51.042;13.804;2022-10-16T05:06:27;12.40;;;11.07;;
19032;SDS011;9649;51.042;13.804;2022-10-16T05:11:29;14.57;;;11.02;;
19032;SDS011;9649;51.042;13.804;2022-10-16T05:16:34;11.93;;;10.63;;
19032;SDS011;9649;51.042;13.804;2022-10-16T05:21:36;11.13;;;9.93;;
19032;SDS011;9649;51.042;13.804;2022-10-16T05:26:39;13.35;;;10.88;;
19032;SDS011;9649;51.042;13.804;2022-10-16T05:31:43;11.77;;;10.52;;
19032;SDS011;9649;51.042;13.804;2022-10-16T05:36:46;12.85;;;9.88;;
19032;SDS011;9649;51.042;13.804;2022-10-16T05:41:49;12.20;;;10.00;;
19032;SDS011;9649;51.042;13.804;2022-10-16T05:46:54;10.73;;;9.60;;
19032;SDS011;9649;51.042;13.804;2022-10-16T05:51:57;12.43;;;10.73;;
19032;SDS011;9649;51.042;13.804;2022-10-16T05:57:00;12.43;;;10.60;;
19032;SDS011;9649;51.042;13.804;2022-10-16T06:02:04;13.90;;;10.90;;
19032;SDS011;9649;51.042;13.804;2022-10-16T06:07:07;15.13;;;11.13;;
19032;SDS011;9649;51.042;13.804;2022-10-16T06:12:10;14.02;;;11.00;;
19032;SDS011;9649;51.042;13.804;2022-10-16T06:17:14;18.95;;;12.93;;
19032;SDS011;9649;51.042;13.804;2022-10-16T06:22:17;16.60;;;13.50;;
19032;SDS011;9649;51.042;13.804;2022-10-16T06:27:20;19.60;;;13.73;;
19032;SDS011;9649;51.042;13.804;2022-10-16T06:32:24;17.23;;;13.20;;
19032;SDS011;9649;51.042;13.804;2022-10-16T06:37:27;17.08;;;15.25;;
19032;SDS011;9649;51.042;13.804;2022-10-16T06:42:30;19.35;;;14.05;;
19032;SDS011;9649;51.042;13.804;2022-10-16T06:47:34;18.42;;;13.80;;
19032;SDS011;9649;51.042;13.804;2022-10-16T06:52:37;16.42;;;14.05;;
19032;SDS011;9649;51.042;13.804;2022-10-16T06:57:40;18.75;;;12.85;;
19032;SDS011;9649;51.042;13.804;2022-10-16T07:02:44;15.30;;;12.82;;
19032;SDS011;9649;51.042;13.804;2022-10-16T07:07:47;14.23;;;11.70;;
19032;SDS011;9649;51.042;13.804;2022-10-16T07:12:49;15.45;;;12.85;;
19032;SDS011;9649;51.042;13.804;2022-10-16T07:17:53;15.52;;;11.48;;
19032;SDS011;9649;51.042;13.804;2022-10-16T07:22:56;15.27;;;13.23;;
19032;SDS011;9649;51.042;13.804;2022-10-16T07:27:59;14.73;;;11.32;;
19032;SDS011;9649;51.042;13.804;2022-10-16T07:33:03;12.52;;;10.70;;
19032;SDS011;9649;51.042;13.804;2022-10-16T07:38:06;15.07;;;10.52;;
19032;SDS011;9649;51.042;13.804;2022-10-16T07:43:09;13.95;;;10.05;;
19032;SDS011;9649;51.042;13.804;2022-10-16T07:48:13;11.57;;;10.27;;
19032;SDS011;9649;51.042;13.804;2022-10-16T07:53:16;11.63;;;10.43;;
19032;SDS011;9649;51.042;13.804;2022-10-16T07:58:22;11.63;;;9.48;;
19032;SDS011;9649;51.042;13.804;2022-10-16T08:09:07;10.55;;;9.48;;
19032;SDS011;9649;51.042;13.804;2022-10-16T08:14:10;13.35;;;9.77;;
19032;SDS011;9649;51.042;13.804;2022-10-16T08:19:13;12.82;;;9.50;;
19032;SDS011;9649;51.042;13.804;2022-10-16T08:24:18;10.27;;;8.90;;
19032;SDS011;9649;51.042;13.804;2022-10-16T08:29:20;12.25;;;8.60;;
19032;SDS011;9649;51.042;13.804;2022-10-16T08:34:23;9.65;;;7.53;;
19032;SDS011;9649;51.042;13.804;2022-10-16T08:39:28;7.75;;;6.30;;
19032;SDS011;9649;51.042;13.804;2022-10-16T08:44:34;8.68;;;5.78;;
19032;SDS011;9649;51.042;13.804;2022-10-16T08:49:54;10.90;;;5.90;;
19032;SDS011;9649;51.042;13.804;2022-10-16T08:55:01;9.85;;;5.63;;
19032;SDS011;9649;51.042;13.804;2022-10-16T09:00:08;5.78;;;5.28;;
19032;SDS011;9649;51.042;13.804;2022-10-16T09:05:17;6.20;;;4.63;;
19032;SDS011;9649;51.042;13.804;2022-10-16T09:10:33;4.80;;;4.18;;
19032;SDS011;9649;51.042;13.804;2022-10-16T09:15:44;4.85;;;4.45;;
19032;SDS011;9649;51.042;13.804;2022-10-16T09:20:56;4.63;;;4.20;;
19032;SDS011;9649;51.042;13.804;2022-10-16T09:26:11;5.22;;;4.78;;
19032;SDS011;9649;51.042;13.804;2022-10-16T09:31:16;4.95;;;4.55;;
19032;SDS011;9649;51.042;13.804;2022-10-16T09:36:21;5.50;;;5.00;;
19032;SDS011;9649;51.042;13.804;2022-10-16T09:41:27;6.65;;;5.30;;
19032;SDS011;9649;51.042;13.804;2022-10-16T09:46:30;6.90;;;6.30;;
19032;SDS011;9649;51.042;13.804;2022-10-16T09:51:35;8.20;;;6.07;;
19032;SDS011;9649;51.042;13.804;2022-10-16T09:56:40;6.93;;;6.22;;
19032;SDS011;9649;51.042;13.804;2022-10-16T10:01:44;6.88;;;6.18;;
19032;SDS011;9649;51.042;13.804;2022-10-16T10:06:50;8.93;;;6.57;;
19032;SDS011;9649;51.042;13.804;2022-10-16T10:11:55;8.38;;;5.38;;
19032;SDS011;9649;51.042;13.804;2022-10-16T10:17:13;5.68;;;5.15;;
19032;SDS011;9649;51.042;13.804;2022-10-16T10:22:30;4.78;;;3.47;;
19032;SDS011;9649;51.042;13.804;2022-10-16T10:27:38;5.43;;;2.90;;
19032;SDS011;9649;51.042;13.804;2022-10-16T10:32:48;2.55;;;2.33;;
19032;SDS011;9649;51.042;13.804;2022-10-16T10:38:03;3.08;;;2.40;;
19032;SDS011;9649;51.042;13.804;2022-10-16T10:43:19;2.50;;;2.30;;
19032;SDS011;9649;51.042;13.804;2022-10-16T10:48:44;3.00;;;2.70;;
19032;SDS011;9649;51.042;13.804;2022-10-16T10:53:59;3.10;;;2.90;;
19032;SDS011;9649;51.042;13.804;2022-10-16T10:59:12;4.45;;;2.75;;
19032;SDS011;9649;51.042;13.804;2022-10-16T11:04:49;2.45;;;2.28;;
19032;SDS011;9649;51.042;13.804;2022-10-16T11:10:20;1.20;;;1.17;;
19032;SDS011;9649;51.042;13.804;2022-10-16T11:15:29;1.30;;;0.82;;
19032;SDS011;9649;51.042;13.804;2022-10-16T11:20:34;0.60;;;0.60;;
19032;SDS011;9649;51.042;13.804;2022-10-16T11:25:42;2.58;;;0.60;;
19032;SDS011;9649;51.042;13.804;2022-10-16T11:30:48;3.35;;;0.50;;
19032;SDS011;9649;51.042;13.804;2022-10-16T11:35:55;0.30;;;0.30;;
19032;SDS011;9649;51.042;13.804;2022-10-16T11:41:03;0.88;;;0.47;;
19032;SDS011;9649;51.042;13.804;2022-10-16T11:46:16;0.70;;;0.30;;
19032;SDS011;9649;51.042;13.804;2022-10-16T11:51:25;1.80;;;0.40;;
19032;SDS011;9649;51.042;13.804;2022-10-16T11:56:35;0.75;;;0.47;;
19032;SDS011;9649;51.042;13.804;2022-10-16T12:01:42;0.80;;;0.50;;
19032;SDS011;9649;51.042;13.804;2022-10-16T12:06:50;0.73;;;0.50;;
19032;SDS011;9649;51.042;13.804;2022-10-16T12:11:58;0.80;;;0.30;;
19032;SDS011;9649;51.042;13.804;2022-10-16T12:17:03;0.50;;;0.50;;
19032;SDS011;9649;51.042;13.804;2022-10-16T12:22:25;1.75;;;0.50;;
19032;SDS011;9649;51.042;13.804;2022-10-16T12:27:31;1.45;;;0.85;;
19032;SDS011;9649;51.042;13.804;2022-10-16T12:32:37;1.88;;;0.45;;
19032;SDS011;9649;51.042;13.804;2022-10-16T12:37:47;2.45;;;0.60;;
19032;SDS011;9649;51.042;13.804;2022-10-16T12:42:51;1.13;;;0.60;;
19032;SDS011;9649;51.042;13.804;2022-10-16T12:47:55;3.00;;;0.70;;
19032;SDS011;9649;51.042;13.804;2022-10-16T12:52:58;0.65;;;0.57;;
19032;SDS011;9649;51.042;13.804;2022-10-16T12:58:17;0.85;;;0.55;;
19032;SDS011;9649;51.042;13.804;2022-10-16T13:03:43;2.15;;;0.50;;
19032;SDS011;9649;51.042;13.804;2022-10-16T13:09:10;1.35;;;0.60;;
19032;SDS011;9649;51.042;13.804;2022-10-16T13:14:25;2.17;;;0.55;;
19032;SDS011;9649;51.042;13.804;2022-10-16T13:19:53;1.23;;;0.52;;
19032;SDS011;9649;51.042;13.804;2022-10-16T13:25:09;3.08;;;0.60;;
19032;SDS011;9649;51.042;13.804;2022-10-16T13:30:23;2.03;;;1.20;;
19032;SDS011;9649;51.042;13.804;2022-10-16T13:35:33;1.48;;;0.68;;
19032;SDS011;9649;51.042;13.804;2022-10-16T13:40:47;0.60;;;0.50;;
19032;SDS011;9649;51.042;13.804;2022-10-16T13:45:55;2.13;;;0.55;;
19032;SDS011;9649;51.042;13.804;2022-10-16T13:51:02;0.88;;;0.73;;
19032;SDS011;9649;51.042;13.804;2022-10-16T13:56:09;2.47;;;0.70;;
19032;SDS011;9649;51.042;13.804;2022-10-16T14:01:15;1.67;;;0.95;;
19032;SDS011;9649;51.042;13.804;2022-10-16T14:06:21;5.43;;;1.15;;
19032;SDS011;9649;51.042;13.804;2022-10-16T14:11:24;1.73;;;0.80;;
19032;SDS011;9649;51.042;13.804;2022-10-16T14:16:29;2.40;;;1.00;;
19032;SDS011;9649;51.042;13.804;2022-10-16T14:21:34;8.98;;;1.17;;
19032;SDS011;9649;51.042;13.804;2022-10-16T14:26:40;1.67;;;0.98;;
19032;SDS011;9649;51.042;13.804;2022-10-16T14:31:54;4.32;;;0.80;;
19032;SDS011;9649;51.042;13.804;2022-10-16T14:37:00;2.55;;;1.42;;
19032;SDS011;9649;51.042;13.804;2022-10-16T14:42:14;2.45;;;1.20;;
19032;SDS011;9649;51.042;13.804;2022-10-16T14:47:21;1.90;;;1.05;;
19032;SDS011;9649;51.042;13.804;2022-10-16T14:52:28;3.25;;;1.02;;
19032;SDS011;9649;51.042;13.804;2022-10-16T14:57:31;2.70;;;0.93;;
19032;SDS011;9649;51.042;13.804;2022-10-16T15:02:37;2.60;;;1.00;;
19032;SDS011;9649;51.042;13.804;2022-10-16T15:07:42;1.95;;;1.10;;
19032;SDS011;9649;51.042;13.804;2022-10-16T15:12:45;2.13;;;1.10;;
19032;SDS011;9649;51.042;13.804;2022-10-16T15:17:48;4.63;;;1.40;;
19032;SDS011;9649;51.042;13.804;2022-10-16T15:22:54;3.20;;;1.65;;
19032;SDS011;9649;51.042;13.804;2022-10-16T15:27:57;1.73;;;1.10;;
19032;SDS011;9649;51.042;13.804;2022-10-16T15:33:00;3.42;;;1.35;;
19032;SDS011;9649;51.042;13.804;2022-10-16T15:38:06;3.28;;;0.98;;
19032;SDS011;9649;51.042;13.804;2022-10-16T15:43:08;2.70;;;0.95;;
19032;SDS011;9649;51.042;13.804;2022-10-16T15:48:12;1.48;;;1.27;;
19032;SDS011;9649;51.042;13.804;2022-10-16T15:53:17;4.63;;;1.60;;
19032;SDS011;9649;51.042;13.804;2022-10-16T15:58:20;4.72;;;2.00;;
19032;SDS011;9649;51.042;13.804;2022-10-16T16:03:23;2.85;;;1.80;;
19032;SDS011;9649;51.042;13.804;2022-10-16T16:08:28;2.40;;;1.60;;
19032;SDS011;9649;51.042;13.804;2022-10-16T16:13:34;3.20;;;1.75;;
19032;SDS011;9649;51.042;13.804;2022-10-16T16:18:39;2.72;;;1.88;;
19032;SDS011;9649;51.042;13.804;2022-10-16T16:23:43;2.08;;;1.52;;
19032;SDS011;9649;51.042;13.804;2022-10-16T16:28:46;4.25;;;2.63;;
19032;SDS011;9649;51.042;13.804;2022-10-16T16:33:49;7.88;;;3.83;;
19032;SDS011;9649;51.042;13.804;2022-10-16T16:38:53;4.97;;;3.50;;
19032;SDS011;9649;51.042;13.804;2022-10-16T16:44:00;7.68;;;3.88;;
19032;SDS011;9649;51.042;13.804;2022-10-16T16:49:04;6.00;;;3.65;;
19032;SDS011;9649;51.042;13.804;2022-10-16T16:54:10;6.60;;;4.75;;
19032;SDS011;9649;51.042;13.804;2022-10-16T16:59:14;9.63;;;6.88;;
19032;SDS011;9649;51.042;13.804;2022-10-16T17:04:20;10.77;;;6.45;;
19032;SDS011;9649;51.042;13.804;2022-10-16T17:09:24;11.65;;;4.93;;
19032;SDS011;9649;51.042;13.804;2022-10-16T17:14:28;8.80;;;4.53;;
19032;SDS011;9649;51.042;13.804;2022-10-16T17:19:30;7.45;;;5.43;;
19032;SDS011;9649;51.042;13.804;2022-10-16T17:24:34;9.50;;;5.68;;
19032;SDS011;9649;51.042;13.804;2022-10-16T17:29:37;7.85;;;5.15;;
19032;SDS011;9649;51.042;13.804;2022-10-16T17:34:40;7.32;;;5.50;;
19032;SDS011;9649;51.042;13.804;2022-10-16T17:39:44;7.25;;;4.97;;
19032;SDS011;9649;51.042;13.804;2022-10-16T17:44:47;8.25;;;5.50;;
19032;SDS011;9649;51.042;13.804;2022-10-16T17:49:50;8.85;;;5.35;;
19032;SDS011;9649;51.042;13.804;2022-10-16T17:54:54;6.78;;;5.25;;
19032;SDS011;9649;51.042;13.804;2022-10-16T17:59:58;11.70;;;7.05;;
19032;SDS011;9649;51.042;13.804;2022-10-16T18:05:02;12.23;;;7.03;;
19032;SDS011;9649;51.042;13.804;2022-10-16T18:10:07;9.63;;;6.38;;
19032;SDS011;9649;51.042;13.804;2022-10-16T18:15:12;11.07;;;6.97;;
19032;SDS011;9649;51.042;13.804;2022-10-16T18:20:16;21.15;;;10.45;;
19032;SDS011;9649;51.042;13.804;2022-10-16T18:25:20;14.13;;;8.02;;
19032;SDS011;9649;51.042;13.804;2022-10-16T18:30:23;9.48;;;7.15;;
19032;SDS011;9649;51.042;13.804;2022-10-16T18:35:26;10.50;;;6.55;;
19032;SDS011;9649;51.042;13.804;2022-10-16T18:40:30;8.40;;;7.13;;
19032;SDS011;9649;51.042;13.804;2022-10-16T18:45:32;8.88;;;6.85;;
19032;SDS011;9649;51.042;13.804;2022-10-16T18:50:35;12.07;;;7.05;;
19032;SDS011;9649;51.042;13.804;2022-10-16T18:55:39;11.23;;;6.68;;
19032;SDS011;9649;51.042;13.804;2022-10-16T19:00:42;10.13;;;6.63;;
19032;SDS011;9649;51.042;13.804;2022-10-16T19:05:45;9.93;;;6.40;;
19032;SDS011;9649;51.042;13.804;2022-10-16T19:10:49;6.80;;;5.90;;
19032;SDS011;9649;51.042;13.804;2022-10-16T19:15:52;9.52;;;5.72;;
19032;SDS011;9649;51.042;13.804;2022-10-16T19:21:03;8.65;;;6.32;;
19032;SDS011;9649;51.042;13.804;2022-10-16T19:26:10;10.52;;;7.38;;
19032;SDS011;9649;51.042;13.804;2022-10-16T19:31:15;15.05;;;7.75;;
19032;SDS011;9649;51.042;13.804;2022-10-16T19:36:20;13.20;;;9.07;;
19032;SDS011;9649;51.042;13.804;2022-10-16T19:41:26;10.05;;;7.40;;
19032;SDS011;9649;51.042;13.804;2022-10-16T19:46:30;13.57;;;7.75;;
19032;SDS011;9649;51.042;13.804;2022-10-16T19:51:34;11.23;;;7.05;;
19032;SDS011;9649;51.042;13.804;2022-10-16T19:56:39;10.75;;;7.45;;
19032;SDS011;9649;51.042;13.804;2022-10-16T20:01:43;8.60;;;6.63;;
19032;SDS011;9649;51.042;13.804;2022-10-16T20:06:48;9.98;;;6.88;;
19032;SDS011;9649;51.042;13.804;2022-10-16T20:12:04;9.23;;;7.18;;
19032;SDS011;9649;51.042;13.804;2022-10-16T20:17:12;14.93;;;6.10;;
19032;SDS011;9649;51.042;13.804;2022-10-16T20:22:24;8.52;;;5.95;;
19032;SDS011;9649;51.042;13.804;2022-10-16T20:41:11;7.75;;;5.10;;
19032;SDS011;9649;51.042;13.804;2022-10-16T20:46:34;7.82;;;5.00;;
19032;SDS011;9649;51.042;13.804;2022-10-16T20:51:56;9.50;;;4.47;;
19032;SDS011;9649;51.042;13.804;2022-10-16T20:57:19;10.00;;;4.60;;
19032;SDS011;9649;51.042;13.804;2022-10-16T21:02:57;11.18;;;4.63;;
19032;SDS011;9649;51.042;13.804;2022-10-16T21:08:21;10.10;;;4.75;;
19032;SDS011;9649;51.042;13.804;2022-10-16T21:13:25;10.38;;;4.20;;
19032;SDS011;9649;51.042;13.804;2022-10-16T21:18:30;8.27;;;4.85;;
19032;SDS011;9649;51.042;13.804;2022-10-16T21:23:33;6.05;;;4.82;;
19032;SDS011;9649;51.042;13.804;2022-10-16T21:28:38;8.68;;;5.88;;
19032;SDS011;9649;51.042;13.804;2022-10-16T21:33:40;7.38;;;5.70;;
19032;SDS011;9649;51.042;13.804;2022-10-16T21:38:43;10.00;;;5.72;;
19032;SDS011;9649;51.042;13.804;2022-10-16T21:43:53;10.05;;;7.30;;
19032;SDS011;9649;51.042;13.804;2022-10-16T21:48:57;10.52;;;6.95;;
19032;SDS011;9649;51.042;13.804;2022-10-16T21:54:02;11.82;;;6.43;;
19032;SDS011;9649;51.042;13.804;2022-10-16T21:59:07;6.53;;;5.30;;
19032;SDS011;9649;51.042;13.804;2022-10-16T22:04:12;10.20;;;5.70;;
19032;SDS011;9649;51.042;13.804;2022-10-16T22:09:15;7.68;;;4.80;;
19032;SDS011;9649;51.042;13.804;2022-10-16T22:14:19;9.45;;;5.07;;
19032;SDS011;9649;51.042;13.804;2022-10-16T22:19:22;8.13;;;4.80;;
19032;SDS011;9649;51.042;13.804;2022-10-16T22:24:25;9.02;;;4.60;;
19032;SDS011;9649;51.042;13.804;2022-10-16T22:29:30;8.20;;;4.43;;
19032;SDS011;9649;51.042;13.804;2022-10-16T22:34:32;6.13;;;4.30;;
19032;SDS011;9649;51.042;13.804;2022-10-16T22:39:35;6.03;;;5.18;;
19032;SDS011;9649;51.042;13.804;2022-10-16T22:44:39;5.55;;;4.30;;
19032;SDS011;9649;51.042;13.804;2022-10-16T22:49:42;6.90;;;5.13;;
19032;SDS011;9649;51.042;13.804;2022-10-16T22:54:45;5.95;;;4.68;;
19032;SDS011;9649;51.042;13.804;2022-10-16T22:59:49;8.93;;;5.78;;
19032;SDS011;9649;51.042;13.804;2022-10-16T23:04:52;7.15;;;5.47;;
19032;SDS011;9649;51.042;13.804;2022-10-16T23:09:55;6.63;;;5.18;;
19032;SDS011;9649;51.042;13.804;2022-10-16T23:14:59;7.20;;;4.75;;
19032;SDS011;9649;51.042;13.804;2022-10-16T23:20:02;9.88;;;4.90;;
19032;SDS011;9649;51.042;13.804;2022-10-16T23:25:05;10.35;;;5.65;;
19032;SDS011;9649;51.042;13.804;2022-10-16T23:30:10;8.95;;;5.60;;
19032;SDS011;9649;51.042;13.804;2022-10-16T23:35:13;8.48;;;5.28;;
19032;SDS011;9649;51.042;13.804;2022-10-16T23:40:16;7.80;;;5.10;;
19032;SDS011;9649;51.042;13.804;2022-10-16T23:45:20;6.80;;;5.13;;
19032;SDS011;9649;51.042;13.804;2022-10-16T23:50:23;14.63;;;6.45;;
19032;SDS011;9649;51.042;13.804;2022-10-16T23:55:26;7.88;;;5.18;;
